Condor II — XCEG3 — position and weather

sailwx.info

Track history (hours):
 
Tides and Currents Weather Stations Pressure Air Temp Water Temp Dewpoint Dewpoint Depression Visibility Wind Speed Wind Dir Waves Ship Positions

Condor II

Last reported at 2017-Aug-31 10:16 UTC. Time now 2017-Sep-21 01:34 UTC.
Position N 28°04' W 114°60'.
Warning: this ship's position is 20 days out of date.

Length 35 m.

Type: Tug. MMSI: 345020008.

Date/timePositionNaut miles runAvg speedWind from/ knotsBaromVisibWave heightAir tempDewpointWater temp
2017-Aug-31 10:16N 28°04' W 114°60'2 6.0
2017-Aug-31 09:59N 28°04' W 114°58'9 0.3
2017-Aug-29 23:34N 28°08' W 114°49'0 6.2
2017-Aug-29 23:30N 28°08' W 114°50'3 5.6
2017-Aug-29 22:58N 28°09' W 114°53'  
2017-Aug-26 21:33N 28°03' W 114°32'0 6.4
2017-Aug-26 21:30N 28°03' W 114°32'5 6.8
2017-Aug-26 20:44N 28°03' W 114°38'1 6.6
2017-Aug-26 20:31N 28°03' W 114°40'7 6.4
2017-Aug-26 19:21N 28°04' W 114°48'4 0.5
2017-Aug-26 10:51N 28°02' W 114°45'  
2017-Aug-24 06:06N 27°54' W 114°17'35 0.9
2017-Aug-22 14:33N 28°06' W 114°55'1 4.7
2017-Aug-22 14:25N 28°06' W 114°54'2 5.0
2017-Aug-22 14:00N 28°05' W 114°52'  
Track history (hours):
 
Tides and Currents Weather Stations Pressure Air Temp Water Temp Dewpoint Dewpoint Depression Visibility Wind Speed Wind Dir Waves Ship Positions

Condor II

Last reported at 2017-Aug-31 10:16 UTC. Time now 2017-Sep-21 01:34 UTC.
Position N 28°04' W 114°60'.
Warning: this ship's position is 20 days out of date.

Length 35 m.

Type: Tug. MMSI: 345020008.

Date/timePositionNaut miles runAvg speedWind from/ knotsBaromVisibWave heightAir tempDewpointWater temp
2017-Aug-31 10:16N 28°04' W 114°60'2 6.0
2017-Aug-31 09:59N 28°04' W 114°58'9 0.3
2017-Aug-29 23:34N 28°08' W 114°49'0 6.2
2017-Aug-29 23:30N 28°08' W 114°50'3 5.6
2017-Aug-29 22:58N 28°09' W 114°53'  
2017-Aug-26 21:33N 28°03' W 114°32'0 6.4
2017-Aug-26 21:30N 28°03' W 114°32'5 6.8
2017-Aug-26 20:44N 28°03' W 114°38'1 6.6
2017-Aug-26 20:31N 28°03' W 114°40'7 6.4
2017-Aug-26 19:21N 28°04' W 114°48'4 0.5
2017-Aug-26 10:51N 28°02' W 114°45'  
2017-Aug-24 06:06N 27°54' W 114°17'35 0.9
2017-Aug-22 14:33N 28°06' W 114°55'1 4.7
2017-Aug-22 14:25N 28°06' W 114°54'2 5.0
2017-Aug-22 14:00N 28°05' W 114°52'  

Dump ship's entire track history